Latest Weather Observations for Alva Beach

IDQ60801

Issued at 3:32 pm EST Sunday 22 January 2017 (issued every 30 minutes, with the page automatically refreshed every 10 minutes)

About weather observations | Map of weather stations | Latest weather observations for QLD | Other Formats
Station Details ID: 033295 Name: ALVA BEACH Lat: -19.46 Lon: 147.48 Height: 7.5 m
Data from the previous 72 hours. | See also: Recent months at Alva Beach
Date/Time
EST
Temp
°C
App
Temp
°C
Dew
Point
°C
Rel
Hum
%
Delta-T
°C
Wind Press
QNH
hPa
Press
MSL
hPa
Rain since
9am
mm
Dir  Spd
km/h
Gust
km/h
Spd
kts
Gust
kts
22/03:30pm 30.8 32.3 22.7 62 5.5 ENE 19 24 10 13 1008.6 1008.6 0.0
22/03:00pm 31.0 33.0 22.9 62 5.6 NE 17 20 9 11 1009.0 1009.0 0.0
22/02:30pm 31.4 33.1 22.4 59 6.1 NE 17 22 9 12 1009.2 1009.2 0.0
22/02:00pm 30.9 33.6 22.8 62 5.6 NE 13 19 7 10 1009.5 1009.5 0.0
22/01:30pm 31.9 35.3 23.4 60 5.9 NE 11 17 6 9 1009.8 1009.8 0.0
22/01:00pm 31.0 33.6 22.6 61 5.7 ENE 13 19 7 10 1009.8 1009.8 0.0
22/12:30pm 31.3 33.8 23.1 61 5.6 ENE 15 20 8 11 1009.7 1009.7 0.0
22/12:00pm 30.7 33.6 23.1 64 5.2 ENE 13 17 7 9 1009.8 1009.8 0.0
22/11:30am 30.7 33.1 22.3 61 5.7 ENE 13 19 7 10 1009.9 1009.9 0.0
22/11:00am 30.8 34.3 22.9 62 5.4 E 9 15 5 8 1010.2 1010.2 0.0
22/10:30am 31.3 34.9 23.1 61 5.6 E 9 15 5 8 1010.3 1010.3 0.0
22/10:00am 30.8 34.2 22.7 62 5.5 NE 9 13 5 7 1010.3 1010.3 0.0
22/09:30am 30.8 34.3 22.1 59 5.9 NE 7 9 4 5 1010.3 1010.3 0.0
22/09:00am 30.6 34.1 22.2 61 5.7 NE 7 9 4 5 1010.1 1010.1 0.0
22/08:30am 30.4 34.1 21.5 59 6.0 NE 4 7 2 4 1010.2 1010.2 0.0
22/08:00am 29.8 33.4 21.2 60 5.8 NNE 4 7 2 4 1010.0 1010.0 0.0
22/07:30am 28.1 32.9 22.1 70 4.0 CALM 0 0 0 0 1009.9 1009.9 0.0
22/07:00am 26.7 31.6 22.3 77 3.0 CALM 0 0 0 0 1009.8 1009.8 0.0
22/06:30am 26.3 30.6 21.9 77 2.9 NW 2 6 1 3 1009.5 1009.5 0.0
22/06:00am 25.7 30.2 21.6 78 2.7 CALM 0 6 0 3 1009.0 1009.0 0.0
22/05:30am 25.7 30.0 21.1 76 3.0 CALM 0 0 0 0 1008.6 1008.6 0.0
22/05:00am 26.4 29.6 21.2 73 3.4 NW 6 7 3 4 1008.2 1008.2 0.0
22/04:30am 27.0 30.9 21.1 70 3.9 NNW 2 7 1 4 1008.0 1008.0 0.0
22/04:00am 27.3 30.2 21.1 69 4.1 N 7 13 4 7 1007.6 1007.6 0.0
22/03:30am 27.2 29.0 21.2 69 4.0 N 13 17 7 9 1007.7 1007.7 0.0
22/03:00am 27.3 29.7 21.6 71 3.8 N 11 15 6 8 1008.0 1008.0 0.0
22/02:30am 27.4 29.2 21.2 69 4.1 N 13 20 7 11 1008.0 1008.0 0.0
22/02:00am 27.7 29.8 22.4 73 3.6 NNE 15 20 8 11 1008.2 1008.2 0.0
22/01:30am 27.6 30.0 22.3 73 3.6 N 13 19 7 10 1008.6 1008.6 0.0
22/01:00am 27.7 29.8 22.4 73 3.6 N 15 22 8 12 1008.9 1008.9 0.0
22/12:30am 27.7 29.3 22.2 72 3.7 NNE 17 20 9 11 1009.1 1009.1 0.0
22/12:00am 27.9 29.7 22.6 73 3.6 NNE 17 20 9 11 1009.3 1009.3 0.0
 
Date/Time
EST
Temp
°C
App
Temp
°C
Dew
Point
°C
Rel
Hum
%
Delta-T
°C
Wind Press
QNH
hPa
Press
MSL
hPa
Rain since
9am
mm
Dir  Spd
km/h
Gust
km/h
Spd
kts
Gust
kts
21/11:30pm 28.1 29.9 22.6 72 3.7 NNE 17 22 9 12 1009.6 1009.6 0.0
21/11:00pm 28.2 30.1 22.7 72 3.7 NNE 17 20 9 11 1009.8 1009.8 0.0
21/10:30pm 28.3 30.7 22.3 70 4.1 NNE 13 17 7 9 1009.9 1009.9 0.0
21/10:00pm 28.3 30.6 22.1 69 4.2 NNE 13 17 7 9 1009.4 1009.4 0.0
21/09:30pm 28.4 30.8 22.2 69 4.2 NNE 13 15 7 8 1009.1 1009.1 0.0
21/09:00pm 28.5 30.3 21.8 67 4.5 NNE 15 19 8 10 1008.5 1008.5 0.0
21/08:30pm 28.7 30.7 22.2 68 4.4 NNE 15 20 8 11 1008.0 1008.0 0.0
21/08:00pm 28.8 30.5 22.3 68 4.4 NNE 17 20 9 11 1007.8 1007.8 0.0
21/07:30pm 28.9 30.3 21.9 66 4.7 NNE 17 20 9 11 1007.4 1007.4 0.0
21/07:00pm 29.2 30.7 22.7 68 4.4 NNE 19 24 10 13 1006.9 1006.9 0.0
21/06:30pm 29.1 30.4 21.6 64 5.0 NNE 17 20 9 11 1006.6 1006.6 0.0
21/06:00pm 29.4 30.3 21.9 64 5.1 NNE 20 26 11 14 1006.2 1006.2 0.0
21/05:30pm 29.8 30.3 22.0 63 5.3 NNE 22 26 12 14 1006.0 1006.0 0.0
21/05:00pm 29.7 29.4 21.1 60 5.8 NNE 24 28 13 15 1005.8 1005.8 0.0
21/04:30pm 30.0 29.9 21.4 60 5.8 NNE 24 28 13 15 1005.7 1005.7 0.0
21/04:00pm 30.2 30.8 21.3 59 6.0 NNE 20 26 11 14 1006.0 1006.0 0.0
21/03:30pm 30.4 30.8 20.9 57 6.3 NNE 20 24 11 13 1006.3 1006.3 0.0
21/03:00pm 30.5 30.8 20.7 55 6.5 NNE 20 24 11 13 1006.8 1006.8 0.0
21/02:30pm 30.6 31.2 21.1 57 6.4 NE 19 24 10 13 1007.0 1007.0 0.0
21/02:00pm 30.7 31.6 21.5 58 6.2 NE 19 24 10 13 1007.2 1007.2 0.0
21/01:30pm 30.7 31.8 21.2 57 6.4 NE 17 22 9 12 1007.6 1007.6 0.0
21/01:00pm 30.5 31.9 21.0 57 6.4 NE 15 20 8 11 1007.9 1007.9 0.0
21/12:30pm 30.6 31.5 20.8 56 6.5 NNE 17 22 9 12 1008.0 1008.0 0.0
21/12:00pm 30.5 31.6 21.3 58 6.2 NNE 17 20 9 11 1008.2 1008.2 0.0
21/11:30am 30.1 30.6 20.1 55 6.6 NE 17 20 9 11 1008.4 1008.4 0.0
21/11:00am 30.3 31.7 21.1 58 6.2 NNE 15 17 8 9 1008.9 1008.9 0.0
21/10:30am 30.1 31.6 20.6 56 6.3 NNE 13 17 7 9 1009.2 1009.2 0.0
21/10:00am 29.7 32.2 21.1 60 5.7 NE 9 13 5 7 1009.6 1009.6 0.0
21/09:30am 29.4 31.2 20.3 58 6.0 NNE 11 15 6 8 1009.6 1009.6 0.0
21/09:00am 29.7 32.8 20.3 57 6.2 N 4 9 2 5 1009.5 1009.5 0.0
21/08:30am 29.0 32.1 20.2 59 5.8 W 4 7 2 4 1009.7 1009.7 0.0
21/08:00am 28.3 31.2 20.6 63 5.1 SW 6 9 3 5 1009.8 1009.8 0.0
21/07:30am 27.4 30.2 20.5 66 4.5 SW 6 11 3 6 1009.5 1009.5 0.0
21/07:00am 26.2 29.3 21.0 73 3.4 SSW 6 9 3 5 1009.2 1009.2 0.0
21/06:30am 24.6 28.2 22.1 86 1.7 SSW 6 9 3 5 1008.9 1008.9 0.0
21/06:00am 24.3 27.7 21.6 85 1.8 SW 6 7 3 4 1008.7 1008.7 0.0
21/05:30am 24.6 27.7 21.1 81 2.3 WSW 6 11 3 6 1008.3 1008.3 0.0
21/05:00am 25.2 29.1 21.1 78 2.7 NW 2 6 1 3 1007.9 1007.9 0.0
21/04:30am 25.5 28.6 21.0 76 3.0 NW 6 7 3 4 1007.6 1007.6 0.0
21/04:00am 25.8 29.9 20.8 74 3.3 CALM 0 4 0 2 1007.6 1007.6 0.0
21/03:30am 26.4 29.6 20.5 70 3.9 N 4 7 2 4 1007.3 1007.3 0.0
21/03:00am 26.5 29.3 20.8 71 3.8 N 7 13 4 7 1007.3 1007.3 0.0
21/02:30am 26.5 29.5 20.8 71 3.8 N 6 7 3 4 1007.4 1007.4 0.0
21/02:00am 26.7 29.2 21.0 71 3.8 N 9 13 5 7 1007.4 1007.4 0.0
21/01:30am 26.8 29.6 20.9 70 3.9 N 7 11 4 6 1007.7 1007.7 0.0
21/01:00am 27.1 30.2 21.4 71 3.8 N 7 11 4 6 1007.9 1007.9 0.0
21/12:30am 27.2 30.3 21.5 71 3.8 NNE 7 11 4 6 1008.2 1008.2 0.0
21/12:00am 27.6 30.2 21.9 71 3.8 NNE 11 13 6 7 1008.3 1008.3 0.0
 
Date/Time
EST
Temp
°C
App
Temp
°C
Dew
Point
°C
Rel
Hum
%
Delta-T
°C
Wind Press
QNH
hPa
Press
MSL
hPa
Rain since
9am
mm
Dir  Spd
km/h
Gust
km/h
Spd
kts
Gust
kts
20/11:30pm 27.7 30.0 22.0 71 3.8 NNE 13 15 7 8 1008.6 1008.6 0.0
20/11:00pm 27.7 29.8 21.7 70 4.0 NE 13 17 7 9 1008.7 1008.7 0.0
20/10:30pm 27.9 29.6 21.7 69 4.2 NE 15 19 8 10 1008.8 1008.8 0.0
20/10:00pm 28.0 29.8 21.8 69 4.2 NE 15 20 8 11 1008.8 1008.8 0.0
20/09:30pm 28.1 30.0 22.1 70 4.0 NE 15 19 8 10 1008.6 1008.6 0.0
20/09:00pm 28.4 30.0 22.2 69 4.2 NE 17 22 9 12 1008.2 1008.2 0.0
20/08:30pm 28.4 28.8 20.9 64 5.0 NE 20 24 11 13 1007.7 1007.7 0.0
20/08:00pm 28.6 29.1 20.9 63 5.1 NE 19 24 10 13 1007.4 1007.4 0.0
20/07:30pm 28.6 28.9 20.3 60 5.5 NE 19 26 10 14 1007.2 1007.2 0.0
20/07:00pm 28.7 28.9 20.2 60 5.6 NE 19 24 10 13 1007.0 1007.0 0.0
20/06:30pm 29.0 29.3 20.4 59 5.7 NE 19 22 10 12 1006.6 1006.6 0.0
20/06:00pm 29.3 29.4 19.9 57 6.2 NE 19 22 10 12 1006.4 1006.4 0.0
20/05:30pm 29.5 29.3 18.6 52 7.0 NE 17 24 9 13 1006.2 1006.2 0.0
20/05:00pm 29.8 29.4 18.9 52 7.1 NE 19 24 10 13 1005.7 1005.7 0.0
20/04:30pm 30.1 29.5 18.8 50 7.3 NE 20 24 11 13 1005.6 1005.6 0.0
20/04:00pm 30.2 29.5 18.3 49 7.7 NE 19 24 10 13 1005.7 1005.7 0.0
20/03:30pm 30.6 29.6 18.0 47 8.1 NE 20 24 11 13 1006.0 1006.0 0.0
20/03:00pm 30.2 29.4 18.0 48 7.8 NE 19 22 10 12 1006.4 1006.4 0.0
20/02:30pm 30.9 30.9 18.9 48 7.8 NE 17 22 9 12 1006.7 1006.7 0.0
20/02:00pm 30.5 30.3 18.6 49 7.7 NE 17 20 9 11 1007.1 1007.1 0.0
20/01:30pm 30.8 30.5 19.2 50 7.6 NNE 19 22 10 12 1007.7 1007.7 0.0
20/01:00pm 30.5 30.5 18.9 50 7.5 NNE 17 22 9 12 1008.2 1008.2 0.0
20/12:30pm 30.5 30.1 17.2 44 8.4 NNE 15 19 8 10 1008.7 1008.7 0.0
20/12:00pm 30.5 30.5 18.2 47 7.9 NE 15 19 8 10 1008.9 1008.9 0.0
20/11:30am 30.7 31.1 18.1 47 8.1 NE 13 17 7 9 1009.1 1009.1 0.0
20/11:00am 30.3 31.1 19.0 50 7.3 NE 13 17 7 9 1009.5 1009.5 0.0
20/10:30am 30.4 31.7 19.4 51 7.2 NE 11 17 6 9 1009.7 1009.7 0.0
20/10:00am 30.0 30.9 18.4 49 7.5 NNE 11 15 6 8 1009.9 1009.9 0.0
20/09:30am 30.1 32.4 19.8 54 6.8 NNE 7 11 4 6 1009.9 1009.9 0.0
20/09:00am 30.0 32.4 18.8 51 7.3 NE 4 9 2 5 1009.8 1009.8 0.0
20/08:30am 29.6 32.2 17.4 47 7.7 CALM 0 6 0 3 1009.6 1009.6 0.0
20/08:00am 29.3 31.6 17.8 50 7.3 ESE 2 7 1 4 1009.3 1009.3 0.0
20/07:30am 28.6 32.4 20.1 60 5.6 CALM 0 0 0 0 1009.2 1009.2 0.0
20/07:00am 26.3 30.6 21.1 73 3.4 CALM 0 0 0 0 1009.1 1009.1 0.0
20/06:30am 24.6 28.3 20.7 79 2.6 SW 2 7 1 4 1008.9 1008.9 0.0
20/06:00am 24.7 28.5 20.2 76 2.9 CALM 0 0 0 0 1008.5 1008.5 0.0
20/05:30am 25.9 28.4 19.1 66 4.4 N 4 9 2 5 1008.0 1008.0 0.0
20/05:00am 26.9 28.7 19.5 64 4.8 NNE 9 13 5 7 1007.5 1007.5 0.0
20/04:30am 27.1 28.3 20.0 65 4.6 NNE 13 17 7 9 1007.4 1007.4 0.0
20/04:00am 26.9 28.4 20.5 68 4.2 NNE 13 17 7 9 1007.1 1007.1 0.0
20/03:30am 26.9 28.4 20.5 68 4.2 NNE 13 15 7 8 1007.1 1007.1 0.0
20/03:00am 27.0 28.5 20.6 68 4.2 NNE 13 15 7 8 1007.4 1007.4 0.0
20/02:30am 27.3 28.4 20.4 66 4.5 NE 15 20 8 11 1007.5 1007.5 0.0
20/02:00am 27.2 28.8 21.5 71 3.8 NNE 15 20 8 11 1007.7 1007.7 0.0
20/01:30am 27.1 29.0 21.4 71 3.8 NNE 13 20 7 11 1007.8 1007.8 0.0
20/01:00am 27.1 28.2 21.2 70 3.9 NNE 17 20 9 11 1008.3 1008.3 0.0
20/12:30am 27.3 28.4 20.4 66 4.5 NNE 15 19 8 10 1008.4 1008.4 0.0
20/12:00am 27.5 28.6 21.3 69 4.1 NE 17 24 9 13 1008.8 1008.8 0.0
 
Date/Time
EST
Temp
°C
App
Temp
°C
Dew
Point
°C
Rel
Hum
%
Delta-T
°C
Wind Press
QNH
hPa
Press
MSL
hPa
Rain since
9am
mm
Dir  Spd
km/h
Gust
km/h
Spd
kts
Gust
kts
19/11:30pm 27.7 28.7 21.7 70 4.0 NNE 19 24 10 13 1008.9 1008.9 0.0
19/11:00pm 27.7 28.4 21.5 69 4.1 NNE 20 24 11 13 1009.0 1009.0 0.0
19/10:30pm 27.7 29.0 21.7 70 4.0 NNE 17 24 9 13 1009.0 1009.0 0.0
19/10:00pm 27.8 29.1 21.6 69 4.1 NE 17 22 9 12 1008.8 1008.8 0.0
19/09:30pm 28.0 29.6 22.2 70 3.9 NE 17 20 9 11 1008.4 1008.4 0.0
19/09:00pm 28.1 29.3 22.1 70 4.0 NNE 19 22 10 12 1007.9 1007.9 0.0
19/08:30pm 28.1 29.0 21.9 69 4.2 NNE 20 22 11 12 1007.6 1007.6 0.0
19/08:00pm 28.4 29.5 21.9 68 4.4 NNE 19 24 10 13 1007.3 1007.3 0.0
19/07:30pm 28.2 29.1 21.5 67 4.5 NNE 19 22 10 12 1007.1 1007.1 0.0
19/07:00pm 28.4 28.9 21.2 65 4.8 NNE 20 24 11 13 1007.0 1007.0 0.0
19/06:30pm 28.8 28.8 21.6 65 4.8 NE 24 26 13 14 1006.9 1006.9 0.0
19/06:00pm 29.1 29.3 22.1 66 4.7 NE 24 28 13 15 1006.7 1006.7 0.0
19/05:30pm 29.3 28.9 21.0 61 5.5 NNE 24 28 13 15 1006.6 1006.6 0.0
19/05:00pm 29.6 30.0 21.0 60 5.7 NE 20 26 11 14 1006.7 1006.7 0.0
19/04:30pm 30.1 30.2 21.2 59 6.0 NE 22 28 12 15 1006.7 1006.7 0.0
19/04:00pm 30.0 29.9 20.8 57 6.1 NE 22 26 12 14 1006.6 1006.6 0.0

Other Formats:

Comma delimited format used in spreadsheet applications
http://www.bom.gov.au/fwo/IDQ60801/IDQ60801.95296.axf

JavaScript Object Notation format (JSON) in row-major order
http://www.bom.gov.au/fwo/IDQ60801/IDQ60801.95296.json